Airfield :
LOGIN :

Register | Disclaimer

   EN    FR    IT 

 










Legend :    VFR   Marginal VFR   IFR   Intensive IFR   Very Intensive IFR
Visi :
Ceiling :
>= 8 km
>= 3000ft
5 to 8 km
1000 to 3000 ft
1500m to 5 km
500 to 1000 ft
800 to 1500m
200 to 500 ft
< 800m
< 200 ft
Symbols :   Thunderstorms  Fog  Heavy snow  Heavy precipitations  Wind > 20 kt
SIGMETs :     Misc.  Thunderstorms  Icing  Turbulence  Mountain Waves  Volcanic Ashes







- Airport Elevation : 13 ft
- IATA code : SNR
- Download approach charts


LFRZ - St-Nazaire

CURRENT METAR :
  • 260830Z AUTO 28010KT 9999 BKN018 OVC024 14/10 Q1020 NOSIG

EXPIRED METARs :
  • 260800Z AUTO 29007KT 9999 BKN015 BKN021 OVC033 14/11 Q1020 NOSIG
  • 260730Z AUTO 29006KT 260V320 9999 FEW012 BKN028 OVC033 14/12 Q1020 NOSIG
  • 260700Z AUTO 28007KT 9999 OVC023 13/12 Q1020 NOSIG
  • 260630Z AUTO 28007KT 9999 FEW011 OVC021 13/12 Q1020 NOSIG
  • 260600Z AUTO 29005KT 250V310 9999 BKN012 BKN018 OVC025 13/12 Q1020 BECMG BKN020

TAF TAF LFRZ
Valid from the 26 at 06:00 until the 27 at 06:00 UTC


260500Z 2606/2706 VRB04KT 9999 BKN020
BECMG 2608/2610 27010KT
BECMG 2619/2621 BKN008
TEMPO 2622/2705 3000 -RADZ BKN003
No reported NOTAMs for that airfield.



MET'MAP, your aeronautical weather chart ! - Copyright ORBIFLY December 2007 - Disclaimer

ORBIFLY MET'MAP TEAM :

Programming & Development : Alexandra Zaïnal
Concept & Development : Baudouin d'Aumeries
Co-Development & Prog : Marc-Olivier Méhu
Technical & hardware support : Manuel Goepfert

Contact : metmap@orbifly.com




SOURCES & CREDITS :

   NOAA